sensor_id;sensor_type;location;lat;lon;timestamp;P1;durP1;ratioP1;P2;durP2;ratioP2
20421;SDS011;10370;53.102;18.034;2022-11-11T02:54:50;14.30;;;6.30;;
20421;SDS011;10370;53.102;18.034;2022-11-11T03:07:04;16.20;;;6.78;;
20421;SDS011;10370;53.102;18.034;2022-11-11T03:12:58;15.70;;;6.55;;
20421;SDS011;10370;53.102;18.034;2022-11-11T03:18:20;19.25;;;6.68;;
20421;SDS011;10370;53.102;18.034;2022-11-11T03:23:45;16.88;;;7.10;;
20421;SDS011;10370;53.102;18.034;2022-11-11T03:29:08;14.00;;;6.28;;
20421;SDS011;10370;53.102;18.034;2022-11-11T03:50:38;14.20;;;6.93;;
20421;SDS011;10370;53.102;18.034;2022-11-11T03:56:12;14.25;;;6.30;;
20421;SDS011;10370;53.102;18.034;2022-11-11T04:06:56;13.45;;;6.32;;
20421;SDS011;10370;53.102;18.034;2022-11-11T04:12:49;17.23;;;6.00;;
20421;SDS011;10370;53.102;18.034;2022-11-11T04:18:45;17.02;;;6.57;;
20421;SDS011;10370;53.102;18.034;2022-11-11T04:24:44;13.57;;;5.70;;
20421;SDS011;10370;53.102;18.034;2022-11-11T04:30:31;16.48;;;6.45;;
20421;SDS011;10370;53.102;18.034;2022-11-11T04:36:18;11.88;;;6.25;;
20421;SDS011;10370;53.102;18.034;2022-11-11T04:41:48;17.40;;;5.95;;
20421;SDS011;10370;53.102;18.034;2022-11-11T05:52:53;15.35;;;6.38;;
20421;SDS011;10370;53.102;18.034;2022-11-11T05:58:21;15.32;;;6.35;;
20421;SDS011;10370;53.102;18.034;2022-11-11T06:03:44;20.65;;;6.88;;
20421;SDS011;10370;53.102;18.034;2022-11-11T06:09:23;15.80;;;7.38;;
20421;SDS011;10370;53.102;18.034;2022-11-11T06:14:44;15.57;;;7.57;;
20421;SDS011;10370;53.102;18.034;2022-11-11T06:20:08;21.55;;;7.90;;
20421;SDS011;10370;53.102;18.034;2022-11-11T06:25:30;18.42;;;8.85;;
20421;SDS011;10370;53.102;18.034;2022-11-11T06:31:13;19.10;;;8.55;;
20421;SDS011;10370;53.102;18.034;2022-11-11T06:36:38;22.52;;;8.32;;
20421;SDS011;10370;53.102;18.034;2022-11-11T06:41:59;25.25;;;8.70;;
20421;SDS011;10370;53.102;18.034;2022-11-11T06:47:20;20.75;;;8.10;;
20421;SDS011;10370;53.102;18.034;2022-11-11T06:52:41;21.90;;;8.75;;
20421;SDS011;10370;53.102;18.034;2022-11-11T06:58:12;19.83;;;8.02;;
20421;SDS011;10370;53.102;18.034;2022-11-11T07:03:37;27.67;;;8.85;;
20421;SDS011;10370;53.102;18.034;2022-11-11T07:08:58;22.17;;;7.97;;
20421;SDS011;10370;53.102;18.034;2022-11-11T07:14:19;16.60;;;7.15;;
20421;SDS011;10370;53.102;18.034;2022-11-11T07:19:40;21.92;;;7.47;;
20421;SDS011;10370;53.102;18.034;2022-11-11T07:25:02;21.85;;;12.10;;
20421;SDS011;10370;53.102;18.034;2022-11-11T07:30:24;19.63;;;10.27;;
20421;SDS011;10370;53.102;18.034;2022-11-11T07:35:45;17.30;;;7.60;;
20421;SDS011;10370;53.102;18.034;2022-11-11T07:41:06;20.00;;;8.80;;
20421;SDS011;10370;53.102;18.034;2022-11-11T07:46:27;20.23;;;8.45;;
20421;SDS011;10370;53.102;18.034;2022-11-11T07:51:48;18.73;;;7.78;;
20421;SDS011;10370;53.102;18.034;2022-11-11T07:57:09;19.95;;;8.00;;
20421;SDS011;10370;53.102;18.034;2022-11-11T08:02:30;15.75;;;7.43;;
20421;SDS011;10370;53.102;18.034;2022-11-11T08:07:51;14.15;;;7.28;;
20421;SDS011;10370;53.102;18.034;2022-11-11T08:13:13;21.88;;;7.82;;
20421;SDS011;10370;53.102;18.034;2022-11-11T08:18:52;19.98;;;11.00;;
20421;SDS011;10370;53.102;18.034;2022-11-11T08:24:13;20.08;;;8.80;;
20421;SDS011;10370;53.102;18.034;2022-11-11T08:29:55;21.38;;;8.57;;
20421;SDS011;10370;53.102;18.034;2022-11-11T08:35:16;21.08;;;7.93;;
20421;SDS011;10370;53.102;18.034;2022-11-11T08:40:37;19.55;;;8.38;;
20421;SDS011;10370;53.102;18.034;2022-11-11T08:45:59;16.70;;;8.10;;
20421;SDS011;10370;53.102;18.034;2022-11-11T08:51:23;15.75;;;8.27;;
20421;SDS011;10370;53.102;18.034;2022-11-11T08:56:44;18.33;;;7.00;;
20421;SDS011;10370;53.102;18.034;2022-11-11T09:02:05;14.48;;;6.57;;
20421;SDS011;10370;53.102;18.034;2022-11-11T09:07:32;13.52;;;6.00;;
20421;SDS011;10370;53.102;18.034;2022-11-11T09:12:56;17.95;;;6.00;;
20421;SDS011;10370;53.102;18.034;2022-11-11T09:18:18;13.95;;;6.35;;
20421;SDS011;10370;53.102;18.034;2022-11-11T09:23:39;12.75;;;6.10;;
20421;SDS011;10370;53.102;18.034;2022-11-11T09:29:00;11.95;;;5.95;;
20421;SDS011;10370;53.102;18.034;2022-11-11T09:34:21;14.02;;;6.25;;
20421;SDS011;10370;53.102;18.034;2022-11-11T09:39:42;14.60;;;6.82;;
20421;SDS011;10370;53.102;18.034;2022-11-11T09:45:21;16.88;;;7.00;;
20421;SDS011;10370;53.102;18.034;2022-11-11T09:50:47;16.60;;;7.00;;
20421;SDS011;10370;53.102;18.034;2022-11-11T09:56:14;17.98;;;7.20;;
20421;SDS011;10370;53.102;18.034;2022-11-11T10:01:57;14.57;;;6.60;;
20421;SDS011;10370;53.102;18.034;2022-11-11T10:40:24;20.30;;;7.20;;
20421;SDS011;10370;53.102;18.034;2022-11-11T10:51:22;16.90;;;7.85;;
20421;SDS011;10370;53.102;18.034;2022-11-11T10:57:04;16.63;;;8.00;;
20421;SDS011;10370;53.102;18.034;2022-11-11T11:03:19;17.40;;;8.10;;
20421;SDS011;10370;53.102;18.034;2022-11-11T11:08:19;19.20;;;7.90;;
20421;SDS011;10370;53.102;18.034;2022-11-11T11:13:49;15.52;;;7.70;;
20421;SDS011;10370;53.102;18.034;2022-11-11T11:24:46;17.83;;;8.13;;
20421;SDS011;10370;53.102;18.034;2022-11-11T11:30:11;14.95;;;8.27;;
20421;SDS011;10370;53.102;18.034;2022-11-11T11:35:41;18.67;;;8.00;;
20421;SDS011;10370;53.102;18.034;2022-11-11T11:41:03;19.88;;;8.45;;
20421;SDS011;10370;53.102;18.034;2022-11-11T12:09:05;17.83;;;8.20;;
20421;SDS011;10370;53.102;18.034;2022-11-11T12:21:13;22.75;;;9.32;;
20421;SDS011;10370;53.102;18.034;2022-11-11T12:43:18;17.77;;;8.75;;
20421;SDS011;10370;53.102;18.034;2022-11-11T13:00:20;18.50;;;9.50;;
20421;SDS011;10370;53.102;18.034;2022-11-11T13:16:54;15.85;;;7.97;;
20421;SDS011;10370;53.102;18.034;2022-11-11T13:27:40;16.75;;;8.18;;
20421;SDS011;10370;53.102;18.034;2022-11-11T13:33:04;21.10;;;9.05;;
20421;SDS011;10370;53.102;18.034;2022-11-11T13:38:57;21.23;;;9.55;;
20421;SDS011;10370;53.102;18.034;2022-11-11T13:44:24;16.65;;;9.25;;
20421;SDS011;10370;53.102;18.034;2022-11-11T13:49:56;16.42;;;8.60;;
20421;SDS011;10370;53.102;18.034;2022-11-11T13:55:27;18.13;;;8.93;;
20421;SDS011;10370;53.102;18.034;2022-11-11T14:01:05;15.30;;;8.32;;
20421;SDS011;10370;53.102;18.034;2022-11-11T14:06:28;16.92;;;9.02;;
20421;SDS011;10370;53.102;18.034;2022-11-11T14:12:00;18.60;;;8.90;;
20421;SDS011;10370;53.102;18.034;2022-11-11T14:17:42;15.60;;;8.30;;
20421;SDS011;10370;53.102;18.034;2022-11-11T14:28:56;21.60;;;8.57;;
20421;SDS011;10370;53.102;18.034;2022-11-11T14:34:32;21.25;;;8.68;;
20421;SDS011;10370;53.102;18.034;2022-11-11T14:40:10;18.75;;;8.32;;
20421;SDS011;10370;53.102;18.034;2022-11-11T14:57:00;16.40;;;8.85;;
20421;SDS011;10370;53.102;18.034;2022-11-11T15:02:32;19.58;;;9.90;;
20421;SDS011;10370;53.102;18.034;2022-11-11T15:07:58;20.70;;;9.20;;
20421;SDS011;10370;53.102;18.034;2022-11-11T15:30:40;23.45;;;11.25;;
20421;SDS011;10370;53.102;18.034;2022-11-11T15:36:43;22.75;;;10.00;;
20421;SDS011;10370;53.102;18.034;2022-11-11T15:42:26;20.67;;;9.90;;
20421;SDS011;10370;53.102;18.034;2022-11-11T15:48:00;16.65;;;9.57;;
20421;SDS011;10370;53.102;18.034;2022-11-11T15:53:24;15.98;;;9.15;;
20421;SDS011;10370;53.102;18.034;2022-11-11T15:58:47;18.05;;;9.82;;
20421;SDS011;10370;53.102;18.034;2022-11-11T16:04:08;22.40;;;10.15;;
20421;SDS011;10370;53.102;18.034;2022-11-11T16:09:54;28.20;;;12.20;;
20421;SDS011;10370;53.102;18.034;2022-11-11T16:26:17;21.27;;;10.85;;
20421;SDS011;10370;53.102;18.034;2022-11-11T16:31:45;19.17;;;11.02;;
20421;SDS011;10370;53.102;18.034;2022-11-11T16:37:06;21.63;;;10.45;;
20421;SDS011;10370;53.102;18.034;2022-11-11T16:42:34;18.67;;;11.32;;
20421;SDS011;10370;53.102;18.034;2022-11-11T16:47:56;18.42;;;10.52;;
20421;SDS011;10370;53.102;18.034;2022-11-11T16:53:23;21.52;;;10.82;;
20421;SDS011;10370;53.102;18.034;2022-11-11T16:58:54;21.80;;;11.90;;
20421;SDS011;10370;53.102;18.034;2022-11-11T17:10:16;25.92;;;12.57;;
20421;SDS011;10370;53.102;18.034;2022-11-11T17:15:39;25.02;;;11.98;;
20421;SDS011;10370;53.102;18.034;2022-11-11T17:21:00;24.55;;;12.65;;
20421;SDS011;10370;53.102;18.034;2022-11-11T17:26:22;28.60;;;12.65;;
20421;SDS011;10370;53.102;18.034;2022-11-11T17:31:43;22.90;;;12.63;;
20421;SDS011;10370;53.102;18.034;2022-11-11T17:37:04;22.75;;;11.93;;
20421;SDS011;10370;53.102;18.034;2022-11-11T17:42:26;23.17;;;13.10;;
20421;SDS011;10370;53.102;18.034;2022-11-11T17:47:49;20.85;;;11.80;;
20421;SDS011;10370;53.102;18.034;2022-11-11T17:53:10;25.10;;;12.82;;
20421;SDS011;10370;53.102;18.034;2022-11-11T17:58:35;24.52;;;12.45;;
20421;SDS011;10370;53.102;18.034;2022-11-11T18:03:59;23.90;;;12.77;;
20421;SDS011;10370;53.102;18.034;2022-11-11T18:09:23;23.13;;;12.32;;
20421;SDS011;10370;53.102;18.034;2022-11-11T18:14:44;22.35;;;12.57;;
20421;SDS011;10370;53.102;18.034;2022-11-11T18:20:05;27.20;;;14.00;;
20421;SDS011;10370;53.102;18.034;2022-11-11T18:25:26;22.20;;;11.50;;
20421;SDS011;10370;53.102;18.034;2022-11-11T18:30:48;22.00;;;10.40;;
20421;SDS011;10370;53.102;18.034;2022-11-11T18:36:10;45.63;;;20.70;;
20421;SDS011;10370;53.102;18.034;2022-11-11T18:41:34;51.03;;;21.88;;
20421;SDS011;10370;53.102;18.034;2022-11-11T18:46:55;21.30;;;11.45;;
20421;SDS011;10370;53.102;18.034;2022-11-11T18:52:16;32.03;;;16.17;;
20421;SDS011;10370;53.102;18.034;2022-11-11T18:57:37;23.85;;;12.05;;
20421;SDS011;10370;53.102;18.034;2022-11-11T19:02:59;21.02;;;10.60;;
20421;SDS011;10370;53.102;18.034;2022-11-11T19:08:20;19.38;;;11.00;;
20421;SDS011;10370;53.102;18.034;2022-11-11T19:13:41;20.77;;;11.20;;
20421;SDS011;10370;53.102;18.034;2022-11-11T19:19:02;16.20;;;9.45;;
20421;SDS011;10370;53.102;18.034;2022-11-11T19:24:23;14.93;;;9.43;;
20421;SDS011;10370;53.102;18.034;2022-11-11T19:29:48;22.48;;;10.00;;
20421;SDS011;10370;53.102;18.034;2022-11-11T19:35:09;14.80;;;9.32;;
20421;SDS011;10370;53.102;18.034;2022-11-11T19:40:30;18.75;;;10.32;;
20421;SDS011;10370;53.102;18.034;2022-11-11T19:45:51;21.08;;;10.98;;
20421;SDS011;10370;53.102;18.034;2022-11-11T19:51:13;20.60;;;10.60;;
20421;SDS011;10370;53.102;18.034;2022-11-11T19:56:36;24.95;;;12.50;;
20421;SDS011;10370;53.102;18.034;2022-11-11T20:01:57;25.88;;;12.48;;
20421;SDS011;10370;53.102;18.034;2022-11-11T20:07:18;22.67;;;12.13;;
20421;SDS011;10370;53.102;18.034;2022-11-11T20:12:40;17.02;;;10.32;;
20421;SDS011;10370;53.102;18.034;2022-11-11T20:18:01;24.33;;;12.52;;
20421;SDS011;10370;53.102;18.034;2022-11-11T20:23:23;22.02;;;11.43;;
20421;SDS011;10370;53.102;18.034;2022-11-11T20:28:44;23.70;;;11.63;;
20421;SDS011;10370;53.102;18.034;2022-11-11T20:34:05;20.58;;;11.70;;
20421;SDS011;10370;53.102;18.034;2022-11-11T20:39:29;24.75;;;12.77;;
20421;SDS011;10370;53.102;18.034;2022-11-11T20:44:50;24.08;;;13.25;;
20421;SDS011;10370;53.102;18.034;2022-11-11T20:50:11;27.90;;;12.75;;
20421;SDS011;10370;53.102;18.034;2022-11-11T20:55:32;25.20;;;13.05;;
20421;SDS011;10370;53.102;18.034;2022-11-11T21:00:53;24.00;;;13.35;;
20421;SDS011;10370;53.102;18.034;2022-11-11T21:06:15;25.23;;;14.50;;
20421;SDS011;10370;53.102;18.034;2022-11-11T21:11:37;28.95;;;14.48;;
20421;SDS011;10370;53.102;18.034;2022-11-11T21:16:58;24.85;;;13.98;;
20421;SDS011;10370;53.102;18.034;2022-11-11T21:22:19;24.00;;;14.43;;
20421;SDS011;10370;53.102;18.034;2022-11-11T21:27:40;29.55;;;15.40;;
20421;SDS011;10370;53.102;18.034;2022-11-11T21:33:01;26.17;;;15.02;;
20421;SDS011;10370;53.102;18.034;2022-11-11T21:38:27;24.20;;;13.48;;
20421;SDS011;10370;53.102;18.034;2022-11-11T21:43:48;23.33;;;13.73;;
20421;SDS011;10370;53.102;18.034;2022-11-11T21:49:10;24.55;;;13.88;;
20421;SDS011;10370;53.102;18.034;2022-11-11T21:54:31;27.40;;;15.15;;
20421;SDS011;10370;53.102;18.034;2022-11-11T21:59:52;27.52;;;14.18;;
20421;SDS011;10370;53.102;18.034;2022-11-11T22:05:13;28.27;;;14.45;;
20421;SDS011;10370;53.102;18.034;2022-11-11T22:10:34;23.80;;;13.23;;
20421;SDS011;10370;53.102;18.034;2022-11-11T22:16:03;21.98;;;13.15;;
20421;SDS011;10370;53.102;18.034;2022-11-11T22:21:28;23.17;;;13.55;;
20421;SDS011;10370;53.102;18.034;2022-11-11T22:26:52;23.80;;;13.77;;
20421;SDS011;10370;53.102;18.034;2022-11-11T22:32:13;23.80;;;13.38;;
20421;SDS011;10370;53.102;18.034;2022-11-11T22:37:34;26.73;;;13.80;;
20421;SDS011;10370;53.102;18.034;2022-11-11T22:42:55;23.77;;;13.90;;
20421;SDS011;10370;53.102;18.034;2022-11-11T22:48:16;23.05;;;14.35;;
20421;SDS011;10370;53.102;18.034;2022-11-11T22:53:38;25.38;;;13.98;;
20421;SDS011;10370;53.102;18.034;2022-11-11T22:59:00;33.08;;;16.45;;
20421;SDS011;10370;53.102;18.034;2022-11-11T23:04:23;31.13;;;16.30;;
20421;SDS011;10370;53.102;18.034;2022-11-11T23:09:44;28.83;;;16.50;;
20421;SDS011;10370;53.102;18.034;2022-11-11T23:15:05;23.77;;;13.93;;
20421;SDS011;10370;53.102;18.034;2022-11-11T23:20:26;23.95;;;13.30;;
20421;SDS011;10370;53.102;18.034;2022-11-11T23:25:48;24.77;;;14.27;;
20421;SDS011;10370;53.102;18.034;2022-11-11T23:31:10;25.92;;;14.43;;
20421;SDS011;10370;53.102;18.034;2022-11-11T23:36:35;25.70;;;14.20;;
20421;SDS011;10370;53.102;18.034;2022-11-11T23:41:56;22.30;;;13.35;;
20421;SDS011;10370;53.102;18.034;2022-11-11T23:47:17;26.50;;;13.15;;
20421;SDS011;10370;53.102;18.034;2022-11-11T23:52:38;23.15;;;13.40;;
20421;SDS011;10370;53.102;18.034;2022-11-11T23:57:59;22.67;;;13.07;;
